Latest Weather Observations for Darwin Airport

IDD60801

Issued at 8:51 pm CST Tuesday 24 May 2022 (issued every 10 minutes, with the page automatically refreshed every 10 minutes)

About weather observations | Map of weather stations | Latest weather observations for NT | Other Formats
Station Details ID: 014015 Name: DARWIN AIRPORT Lat: -12.42 Lon: 130.89 Height: 30.4 m
Data from the previous 72 hours. | See also: Recent months at Darwin Airport
Date/Time
CST
Temp
°C
App
Temp
°C
Dew
Point
°C
Rel
Hum
%
Delta-T
°C
Wind Press
QNH
hPa
Press
MSL
hPa
Rain since
9am
mm
Dir  Spd
km/h
Gust
km/h
Spd
kts
Gust
kts
24/08:30pm 27.6 31.1 22.8 75 3.3 N 9 13 5 7 1013.9 1013.7 0.0
24/08:00pm 27.7 31.2 22.9 75 3.3 NNE 9 13 5 7 1013.2 1013.0 0.0
24/07:30pm 28.2 31.3 22.9 73 3.6 NNE 11 15 6 8 1012.8 1012.6 0.0
24/07:00pm 28.6 31.7 22.8 71 4.0 NNE 11 15 6 8 1012.4 1012.2 0.0
24/06:30pm 29.2 31.8 21.9 64 4.9 N 11 13 6 7 1012.1 1011.9 0.0
24/06:00pm 30.1 32.6 21.7 60 5.7 N 11 15 6 8 1011.7 1011.5 0.0
24/05:30pm 30.9 33.2 21.4 57 6.4 N 11 15 6 8 1011.2 1011.0 0.0
24/05:00pm 31.9 34.3 20.8 51 7.4 NNW 9 11 5 6 1010.9 1010.7 0.0
24/04:30pm 32.4 34.4 21.6 53 7.3 NNW 13 19 7 10 1010.6 1010.4 0.0
24/04:00pm 32.6 33.9 20.8 49 7.9 NW 15 20 8 11 1010.5 1010.3 0.0
24/03:30pm 33.0 33.3 18.0 41 9.7 WSW 13 24 7 13 1010.6 1010.4 0.0
24/03:00pm 33.2 35.3 18.2 41 9.7 ESE 4 9 2 5 1010.6 1010.4 0.0
24/02:30pm 33.0 34.7 18.4 42 9.5 ENE 7 19 4 10 1010.8 1010.6 0.0
24/02:00pm 33.0 34.4 18.7 42 9.3 E 9 19 5 10 1011.1 1010.9 0.0
24/01:30pm 32.6 33.3 18.8 44 9.0 E 13 20 7 11 1011.5 1011.3 0.0
24/01:00pm 32.6 32.5 18.8 44 9.0 E 17 24 9 13 1011.9 1011.7 0.0
24/12:30pm 31.8 31.4 18.0 43 8.9 E 17 28 9 15 1012.5 1012.3 0.0
24/12:00pm 31.7 31.0 18.3 45 8.7 E 19 26 10 14 1012.9 1012.7 0.0
24/11:30am 31.2 30.7 19.2 48 7.8 E 20 28 11 15 1013.3 1013.1 0.0
24/11:00am 30.6 30.2 19.0 50 7.5 ENE 19 26 10 14 1013.6 1013.4 0.0
24/10:30am 29.9 29.0 18.3 49 7.5 E 20 30 11 16 1013.8 1013.6 0.0
24/10:00am 29.5 28.9 19.8 56 6.4 E 22 30 12 16 1013.8 1013.6 0.0
24/09:30am 28.2 28.5 20.5 63 5.1 E 19 22 10 12 1013.7 1013.5 0.0
24/09:00am 27.6 27.8 20.2 64 4.9 E 19 26 10 14 1013.5 1013.3 0.0
24/08:30am 26.6 27.7 20.4 68 4.1 E 15 22 8 12 1013.3 1013.1 0.0
24/08:00am 26.2 28.9 21.4 75 3.2 E 9 15 5 8 1013.0 1012.8 0.0
24/07:30am 24.6 26.5 19.7 74 3.2 ESE 9 15 5 8 1013.0 1012.8 0.0
24/07:00am 24.6 25.3 18.8 70 3.7 E 13 19 7 10 1012.6 1012.4 0.0
24/06:30am 23.6 25.4 18.7 74 3.1 SE 7 9 4 5 1012.2 1012.0 0.0
24/06:00am 23.9 25.6 18.1 70 3.6 SSE 6 7 3 4 1012.1 1011.9 0.0
24/05:30am 23.1 24.9 18.4 75 3.0 ESE 6 9 3 5 1011.8 1011.6 0.0
24/05:00am 23.2 25.2 18.7 76 2.8 E 6 7 3 4 1011.8 1011.6 0.0
24/04:30am 22.2 24.7 19.9 87 1.5 E 6 6 3 3 1011.6 1011.4 0.0
24/04:00am 22.4 25.7 19.9 86 1.6 E 2 4 1 2 1011.3 1011.1 0.0
24/03:30am 23.0 26.0 20.0 83 1.9 S 4 6 2 3 1011.4 1011.2 0.0
24/03:00am 23.4 27.2 20.2 82 2.1 CALM 0 4 0 2 1011.5 1011.3 0.0
24/02:30am 23.7 26.8 20.2 81 2.3 SSE 4 6 2 3 1011.5 1011.3 0.0
24/02:00am 24.4 28.6 20.9 81 2.3 CALM 0 0 0 0 1011.8 1011.6 0.0
24/01:30am 25.1 28.4 21.4 80 2.5 SSE 6 7 3 4 1011.9 1011.7 0.0
24/01:00am 24.6 27.9 21.9 85 1.8 S 7 9 4 5 1011.8 1011.6 0.0
24/12:30am 24.9 28.0 21.4 81 2.3 SSW 7 9 4 5 1012.0 1011.8 0.0
24/12:00am 24.0 27.0 20.9 83 2.0 SSW 6 6 3 3 1012.2 1012.0 0.0
 
Date/Time
CST
Temp
°C
App
Temp
°C
Dew
Point
°C
Rel
Hum
%
Delta-T
°C
Wind Press
QNH
hPa
Press
MSL
hPa
Rain since
9am
mm
Dir  Spd
km/h
Gust
km/h
Spd
kts
Gust
kts
23/11:30pm 23.9 27.9 20.6 82 2.2 CALM 0 0 0 0 1012.4 1012.2 0.0
23/11:00pm 24.6 27.8 20.5 78 2.7 S 4 6 2 3 1012.4 1012.2 0.0
23/10:30pm 25.7 28.4 20.7 74 3.3 S 7 9 4 5 1012.5 1012.3 0.0
23/10:00pm 25.6 29.7 20.8 75 3.2 CALM 0 0 0 0 1012.5 1012.3 0.0
23/09:30pm 25.8 28.9 21.0 75 3.2 ENE 6 6 3 3 1012.4 1012.2 0.0
23/09:00pm 26.0 29.0 20.8 73 3.4 NE 6 7 3 4 1012.2 1012.0 0.0
23/08:30pm 26.5 29.3 20.8 71 3.8 NE 7 9 4 5 1011.8 1011.6 0.0
23/08:00pm 27.0 29.3 20.6 68 4.2 NE 9 13 5 7 1011.4 1011.2 0.0
23/07:30pm 27.6 29.9 20.7 66 4.6 NE 9 13 5 7 1011.0 1010.8 0.0
23/07:00pm 28.4 30.4 20.7 63 5.1 NNE 11 15 6 8 1010.8 1010.6 0.0
23/06:30pm 30.5 31.2 16.1 41 9.0 E 7 9 4 5 1010.3 1010.1 0.0
23/06:00pm 32.0 32.1 15.5 37 10.3 E 9 15 5 8 1009.7 1009.6 0.0
23/05:30pm 32.7 31.8 14.8 34 11.0 E 13 19 7 10 1009.6 1009.5 0.0
23/05:00pm 33.2 31.9 14.8 33 11.4 ESE 15 22 8 12 1009.4 1009.3 0.0
23/04:30pm 33.5 32.9 14.5 31 11.7 SE 11 20 6 11 1009.2 1009.1 0.0
23/04:00pm 33.6 33.9 16.0 34 11.1 SE 9 19 5 10 1009.3 1009.2 0.0
23/03:30pm 33.6 33.7 16.5 36 10.8 ESE 11 20 6 11 1009.3 1009.2 0.0
23/03:00pm 33.5 33.0 15.9 34 11.1 SE 13 19 7 10 1009.7 1009.6 0.0
23/02:30pm 33.2 31.7 15.2 33 11.2 SE 17 26 9 14 1010.0 1009.9 0.0
23/02:00pm 33.5 33.6 16.4 36 10.8 ESE 11 28 6 15 1010.4 1010.2 0.0
23/01:30pm 33.2 31.1 15.2 33 11.2 ESE 20 37 11 20 1011.0 1010.8 0.0
23/01:00pm 32.8 31.8 16.6 37 10.3 E 17 24 9 13 1011.4 1011.2 0.0
23/12:30pm 32.4 31.5 15.8 36 10.4 E 15 24 8 13 1011.9 1011.7 0.0
23/12:00pm 32.2 31.0 16.1 38 10.1 E 17 22 9 12 1012.3 1012.1 0.0
23/11:30am 31.8 30.5 15.7 37 10.0 E 17 28 9 15 1012.6 1012.4 0.0
23/11:00am 31.3 31.2 17.9 44 8.6 E 15 24 8 13 1013.0 1012.8 0.0
23/10:30am 30.3 30.6 19.6 52 7.0 ENE 17 22 9 12 1013.3 1013.1 0.0
23/10:00am 29.9 31.3 21.0 59 5.9 ENE 15 20 8 11 1013.4 1013.2 0.0
23/09:30am 29.0 30.7 21.7 64 4.9 ENE 15 20 8 11 1013.5 1013.3 0.0
23/09:00am 28.2 30.5 22.0 69 4.2 ENE 13 19 7 10 1013.4 1013.2 0.0
23/08:30am 26.7 29.3 21.2 72 3.6 ENE 9 13 5 7 1013.2 1013.0 0.0
23/08:00am 24.9 26.6 18.6 68 4.0 E 7 9 4 5 1012.8 1012.6 0.0
23/07:30am 23.0 23.7 17.0 69 3.7 ESE 9 11 5 6 1012.4 1012.2 0.0
23/07:00am 23.4 23.7 16.0 63 4.5 ESE 9 11 5 6 1012.3 1012.1 0.0
23/06:30am 23.7 24.4 15.7 61 4.8 SE 6 6 3 3 1011.7 1011.5 0.0
23/06:00am 24.0 23.9 16.0 61 4.9 SSE 11 15 6 8 1011.5 1011.3 0.0
23/05:30am 23.5 24.6 17.0 67 4.0 SE 7 9 4 5 1011.3 1011.1 0.0
23/05:00am 22.8 23.7 17.5 72 3.3 SE 9 9 5 5 1011.0 1010.8 0.0
23/04:30am 22.5 24.6 19.3 82 2.0 SE 7 7 4 4 1010.9 1010.7 0.0
23/04:00am 23.2 25.5 19.8 81 2.2 E 7 7 4 4 1011.0 1010.8 0.0
23/03:30am 23.4 26.5 21.1 87 1.5 E 6 7 3 4 1010.9 1010.7 0.0
23/03:00am 23.7 27.3 21.2 86 1.6 E 4 7 2 4 1010.9 1010.7 0.0
23/02:30am 24.7 27.8 21.0 80 2.4 E 6 9 3 5 1011.2 1011.0 0.0
23/02:00am 25.9 28.2 20.7 73 3.4 SSE 9 11 5 6 1011.0 1010.8 0.0
23/01:30am 26.4 29.4 22.7 80 2.5 S 11 13 6 7 1011.0 1010.8 0.0
23/01:00am 26.1 29.6 22.8 82 2.2 S 9 11 5 6 1011.2 1011.0 0.0
23/12:30am 26.0 29.0 22.7 82 2.2 SSW 11 15 6 8 1011.4 1011.2 0.0
23/12:00am 26.1 28.4 22.0 78 2.7 S 13 15 7 8 1011.6 1011.4 0.0
 
Date/Time
CST
Temp
°C
App
Temp
°C
Dew
Point
°C
Rel
Hum
%
Delta-T
°C
Wind Press
QNH
hPa
Press
MSL
hPa
Rain since
9am
mm
Dir  Spd
km/h
Gust
km/h
Spd
kts
Gust
kts
22/11:30pm 24.9 28.2 21.4 81 2.3 SSE 6 7 3 4 1011.7 1011.5 0.0
22/11:00pm 24.9 29.2 21.2 80 2.4 CALM 0 0 0 0 1011.5 1011.3 0.0
22/10:30pm 25.9 29.1 21.3 76 3.1 SSE 6 7 3 4 1011.6 1011.4 0.0
22/10:00pm 26.3 29.1 21.5 75 3.2 SE 9 17 5 9 1011.6 1011.4 0.0
22/09:30pm 26.1 30.5 21.3 75 3.2 CALM 0 2 0 1 1011.3 1011.1 0.0
22/09:00pm 26.6 29.7 21.1 72 3.6 NE 6 7 3 4 1011.2 1011.0 0.0
22/08:30pm 27.2 30.2 21.2 69 4.0 NE 7 11 4 6 1011.0 1010.8 0.0
22/08:00pm 27.5 30.0 21.1 68 4.2 NE 9 15 5 8 1010.7 1010.5 0.0
22/07:30pm 27.9 30.1 21.2 67 4.5 NNE 11 15 6 8 1010.3 1010.1 0.0
22/07:00pm 28.6 30.8 21.1 64 5.0 NNE 11 17 6 9 1009.9 1009.8 0.0
22/06:30pm 29.5 31.0 20.6 58 5.9 NNE 13 19 7 10 1009.6 1009.5 0.0
22/06:00pm 31.9 32.4 16.6 39 9.7 ENE 9 11 5 6 1009.3 1009.2 0.0
22/05:30pm 32.5 32.4 15.9 36 10.4 E 11 17 6 9 1009.0 1008.9 0.0
22/05:00pm 32.9 32.4 15.8 35 10.7 ESE 13 20 7 11 1008.8 1008.7 0.0
22/04:30pm 33.0 32.5 15.0 33 11.2 ESE 11 19 6 10 1008.7 1008.6 0.0
22/04:00pm 32.9 31.3 15.0 34 11.1 E 17 22 9 12 1008.8 1008.7 0.0
22/03:30pm 33.1 32.5 15.6 35 10.9 E 13 22 7 12 1009.0 1008.9 0.0
22/03:00pm 33.3 32.2 15.3 34 11.2 ESE 15 24 8 13 1009.3 1009.2 0.0
22/02:30pm 33.4 31.9 15.4 34 11.2 ESE 17 28 9 15 1009.6 1009.5 0.0
22/02:00pm 32.5 31.2 15.9 36 10.4 ESE 17 24 9 13 1010.0 1009.9 0.0
22/01:30pm 32.5 31.0 16.3 37 10.2 E 19 32 10 17 1010.6 1010.4 0.0
22/01:00pm 31.8 29.7 16.1 38 9.8 E 22 35 12 19 1011.1 1010.9 0.0
22/12:30pm 31.8 30.6 16.1 38 9.8 ESE 17 28 9 15 1011.6 1011.4 0.0
22/12:00pm 31.1 29.4 16.3 41 9.3 ESE 20 28 11 15 1012.1 1011.9 0.0
22/11:30am 31.0 29.8 17.0 43 8.9 ESE 19 28 10 15 1012.5 1012.3 0.0
22/11:00am 30.5 29.6 16.9 44 8.6 SE 17 26 9 14 1012.8 1012.6 0.0
22/10:30am 29.9 29.5 18.0 48 7.6 SSE 17 22 9 12 1013.1 1012.9 0.0
22/10:00am 29.0 28.5 16.9 48 7.6 SE 15 20 8 11 1013.2 1013.0 0.0
22/09:30am 28.3 29.1 19.8 60 5.6 SE 15 20 8 11 1013.1 1012.9 0.0
22/09:00am 26.7 28.1 20.3 68 4.2 SE 13 15 7 8 1013.0 1012.8 0.0
22/08:30am 25.7 28.1 20.9 75 3.2 SE 9 11 5 6 1012.9 1012.7 0.0
22/08:00am 25.3 27.8 21.0 77 2.8 SSE 9 11 5 6 1012.7 1012.5 0.0
22/07:30am 25.2 28.0 21.5 80 2.5 SSE 9 15 5 8 1012.2 1012.0 0.0
22/07:00am 25.0 28.1 22.1 84 1.9 SSE 9 13 5 7 1012.0 1011.8 0.0
22/06:30am 25.3 29.0 22.2 83 2.1 SSE 6 7 3 4 1011.6 1011.4 0.0
22/06:00am 25.9 29.5 22.0 79 2.6 E 6 9 3 5 1011.3 1011.1 0.0
22/05:30am 25.7 29.3 22.0 80 2.5 E 6 7 3 4 1011.1 1010.9 0.0
22/05:00am 25.5 29.0 22.2 82 2.2 E 7 9 4 5 1010.9 1010.7 0.0
22/04:30am 25.0 29.2 22.5 86 1.7 ENE 4 6 2 3 1010.9 1010.7 0.0
22/04:00am 24.7 28.7 22.8 89 1.3 ENE 6 9 3 5 1010.8 1010.6 0.0
22/03:30am 24.7 29.9 22.8 89 1.3 CALM 0 2 0 1 1010.6 1010.4 0.0
22/03:00am 25.1 29.6 23.0 88 1.4 NE 4 6 2 3 1010.9 1010.7 0.0
22/02:30am 25.4 29.9 22.9 86 1.7 NE 4 6 2 3 1011.1 1010.9 0.0
22/02:00am 25.5 29.7 23.2 87 1.6 NE 6 7 3 4 1011.2 1011.0 0.0
22/01:30am 25.3 29.9 23.2 88 1.4 NE 4 7 2 4 1011.3 1011.1 0.0
22/01:00am 25.8 31.1 23.1 85 1.8 CALM 0 0 0 0 1011.4 1011.2 0.0
22/12:30am 26.1 29.5 23.4 85 1.8 NNE 11 17 6 9 1011.6 1011.4 0.0
22/12:00am 26.9 31.1 23.2 80 2.5 SW 6 7 3 4 1011.5 1011.3 0.0
 
Date/Time
CST
Temp
°C
App
Temp
°C
Dew
Point
°C
Rel
Hum
%
Delta-T
°C
Wind Press
QNH
hPa
Press
MSL
hPa
Rain since
9am
mm
Dir  Spd
km/h
Gust
km/h
Spd
kts
Gust
kts
21/11:30pm 27.0 31.3 23.7 82 2.3 SSW 7 9 4 5 1011.6 1011.4 0.0
21/11:00pm 27.2 31.0 23.4 80 2.6 SSW 9 11 5 6 1011.7 1011.5 0.0
21/10:30pm 26.9 30.6 22.5 77 3.0 SSW 7 11 4 6 1011.6 1011.4 0.0
21/10:00pm 26.7 31.5 22.1 76 3.1 CALM 0 6 0 3 1011.5 1011.3 0.0
21/09:30pm 26.8 31.6 22.2 76 3.1 CALM 0 0 0 0 1011.5 1011.3 0.0
21/09:00pm 26.9 31.3 22.1 75 3.2 NE 2 4 1 2 1011.3 1011.1 0.0

Other formats

Comma delimited format used in spreadsheet applications
http://www.bom.gov.au/fwo/IDD60801/IDD60801.94120.axf

JavaScript Object Notation format (JSON) in row-major order
http://www.bom.gov.au/fwo/IDD60801/IDD60801.94120.json

Data quality

Most of these data are generated automatically and are frequently updated. Quality checks on data are not normally performed. It is possible for incorrect values to appear. Refer to information at About Latest Weather Observations and please check the disclaimer before using these data.